Startpagina
METAR-TAF:

METAR-TAF

Vliegvelden :

Jackson, Wyoming, Verenigde Staten

breedte: 43-36N, lengte: 110-44W, hoogte: 1964 m

Actueel weer

Dit bericht is 39 minuten geleden gemaakt, om 22:56 UTC
Wind 5 kt uit het noordnoordoosten
Temperatuur 1°C
Vochtigheid 59%
Druk 1028 hPa
Zicht: 16.1 km
Onbewolkt

METAR: KJAC 142256Z 02005KT 10SM CLR 01/M06 A3036 RMK AO2 SLP345 T00111061

Tijdstip: 16:35 (23:35 UTC)

Verwachting

Dit bericht is 7 minuten geleden gemaakt, om 23:28 UTC
Verwachting geldig van 15 om 00 UTC tot 15 om 24 UTC
Wind 6 kt uit variabele richting
Zicht: 10 km
Verspreide wolken op 20000 ft
Van 15 om 0900 UTC
Wind 6 kt uit het noorden
Zicht: 10 km
Verspreide wolken op 3500 ft
Gebroken wolken op 20000 ft
Van 15 om 1800 UTC
Wind 6 kt uit het zuiden
Zicht: 10 km
Verspreide wolken op 20000 ft

TAF: KJAC 142328Z 1500/1524 VRB06KT P6SM SCT200 FM150900 01006KT P6SM SCT035 BKN200 FM151800 17006KT P6SM SCT200 AMD LTD TO CLD VIS AND WIND

Waarnemingen en weersverwachtingen van meer dan 4000 vliegvelden (METAR en TAF).

De beschikbare stations zijn de gele en rode punten op de kaart.

Ga met uw muis naar het station om de naam te zien.

Klik dan om waarnemingen en weersverwachtingen te zien.

kaart wijzigen: klik op de groene knoppen met een zwart kruis om in te zoomen, op de groene knop met een streepje om uit te zoomen of op de groene pijlen voor aangrenzende kaarten.


METAR-TAF: